sensor_id;sensor_type;location;lat;lon;timestamp;pressure;altitude;pressure_sealevel;temperature;humidity
50652;BME280;66928;52.086;5.240;2023-02-07T06:25:37;103908.99999999999;;;0.36;83.85
50652;BME280;66928;52.086;5.240;2023-02-07T06:28:30;103905.0;;;0.26;84.13
50652;BME280;66928;52.086;5.240;2023-02-07T06:31:23;103896.0;;;0.43;83.76
50652;BME280;66928;52.086;5.240;2023-02-07T06:34:17;103905.0;;;0.38;83.79
50652;BME280;66928;52.086;5.240;2023-02-07T06:37:10;103901.0;;;0.47;83.66
50652;BME280;66928;52.086;5.240;2023-02-07T06:39:51;103896.0;;;0.34;83.98
50652;BME280;66928;52.086;5.240;2023-02-07T06:41:28;103899.0;;;0.23;84.08
50652;BME280;66928;52.086;5.240;2023-02-07T06:43:05;103901.0;;;0.04;84.52
50652;BME280;66928;52.086;5.240;2023-02-07T06:46:20;103904.0;;;0.13;84.47
50652;BME280;66928;52.086;5.240;2023-02-07T06:47:57;103904.0;;;0.16;84.74
50652;BME280;66928;52.086;5.240;2023-02-07T06:49:34;103902.0;;;0.37;83.99
50652;BME280;66928;52.086;5.240;2023-02-07T06:52:48;103904.0;;;0.31;83.87
50652;BME280;66928;52.086;5.240;2023-02-07T06:54:24;103906.0;;;0.31;83.62
50652;BME280;66928;52.086;5.240;2023-02-07T06:56:01;103916.00000000001;;;0.4;83.45
50652;BME280;66928;52.086;5.240;2023-02-07T06:57:40;103922.0;;;0.29;83.7
50652;BME280;66928;52.086;5.240;2023-02-07T07:00:54;103926.0;;;0.34;83.32
50652;BME280;66928;52.086;5.240;2023-02-07T07:02:31;103930.0;;;0.41;83.1
50652;BME280;66928;52.086;5.240;2023-02-07T07:04:08;103934.99999999999;;;0.17;83.69
50652;BME280;66928;52.086;5.240;2023-02-07T07:07:22;103938.00000000001;;;0.25;83.27
50652;BME280;66928;52.086;5.240;2023-02-07T07:09:00;103932.0;;;0.22;82.64
50652;BME280;66928;52.086;5.240;2023-02-07T07:10:37;103925.0;;;0.29;82.88
50652;BME280;66928;52.086;5.240;2023-02-07T07:13:50;103925.0;;;0.26;82.85
50652;BME280;66928;52.086;5.240;2023-02-07T07:15:28;103927.0;;;0.03;83.33
50652;BME280;66928;52.086;5.240;2023-02-07T07:17:05;103931.0;;;0.1;83.32
50652;BME280;66928;52.086;5.240;2023-02-07T07:18:42;103933.0;;;0.22;83.36
50652;BME280;66928;52.086;5.240;2023-02-07T07:21:56;103933.99999999999;;;0.09;83.69
50652;BME280;66928;52.086;5.240;2023-02-07T07:23:35;103932.0;;;0.11;83.77
50652;BME280;66928;52.086;5.240;2023-02-07T07:25:12;103932.0;;;0.18;83.31
50652;BME280;66928;52.086;5.240;2023-02-07T07:28:26;103926.0;;;0.39;82.44
50652;BME280;66928;52.086;5.240;2023-02-07T07:30:04;103930.0;;;0.4;82.19
50652;BME280;66928;52.086;5.240;2023-02-07T07:31:41;103921.0;;;0.35;82.52
50652;BME280;66928;52.086;5.240;2023-02-07T07:33:18;103925.0;;;0.17;83.05
50652;BME280;66928;52.086;5.240;2023-02-07T07:36:32;103930.0;;;0.15;83.07
50652;BME280;66928;52.086;5.240;2023-02-07T07:38:09;103928.0;;;0.12;83.35
50652;BME280;66928;52.086;5.240;2023-02-07T07:39:46;103932.0;;;0.26;83.49
50652;BME280;66928;52.086;5.240;2023-02-07T07:42:59;103931.0;;;0.36;82.85
50652;BME280;66928;52.086;5.240;2023-02-07T07:44:38;103934.99999999999;;;0.38;83.0
50652;BME280;66928;52.086;5.240;2023-02-07T07:46:14;103933.99999999999;;;0.35;83.05
50652;BME280;66928;52.086;5.240;2023-02-07T07:47:51;103930.0;;;0.34;83.24
50652;BME280;66928;52.086;5.240;2023-02-07T07:51:06;103934.99999999999;;;-0.02;84.0
50652;BME280;66928;52.086;5.240;2023-02-07T07:52:42;103936.99999999999;;;0.21;84.16
50652;BME280;66928;52.086;5.240;2023-02-07T07:54:21;103929.0;;;0.32;84.04
50652;BME280;66928;52.086;5.240;2023-02-07T07:57:35;103932.0;;;0.29;83.77
50652;BME280;66928;52.086;5.240;2023-02-07T07:59:12;103927.0;;;0.49;83.45
50652;BME280;66928;52.086;5.240;2023-02-07T08:00:49;103927.0;;;0.58;83.03
50652;BME280;66928;52.086;5.240;2023-02-07T08:04:03;103932.0;;;0.69;82.47
50652;BME280;66928;52.086;5.240;2023-02-07T08:05:42;103933.99999999999;;;0.62;82.41
50652;BME280;66928;52.086;5.240;2023-02-07T08:07:20;103930.0;;;0.83;81.98
50652;BME280;66928;52.086;5.240;2023-02-07T08:08:57;103929.0;;;0.85;82.16
50652;BME280;66928;52.086;5.240;2023-02-07T08:12:11;103928.0;;;0.88;82.05
50652;BME280;66928;52.086;5.240;2023-02-07T08:13:49;103927.0;;;0.91;81.98
50652;BME280;66928;52.086;5.240;2023-02-07T08:15:28;103923.0;;;1.1;81.66
50652;BME280;66928;52.086;5.240;2023-02-07T08:18:42;103929.0;;;1.25;81.12
50652;BME280;66928;52.086;5.240;2023-02-07T08:20:19;103925.0;;;1.21;80.83
50652;BME280;66928;52.086;5.240;2023-02-07T08:21:55;103922.0;;;1.27;80.66
50652;BME280;66928;52.086;5.240;2023-02-07T08:23:33;103931.0;;;1.25;80.98
50652;BME280;66928;52.086;5.240;2023-02-07T08:26:47;103928.0;;;1.24;80.87
50652;BME280;66928;52.086;5.240;2023-02-07T08:28:25;103933.0;;;1.43;80.45
50652;BME280;66928;52.086;5.240;2023-02-07T08:30:05;103942.0;;;1.34;80.44
50652;BME280;66928;52.086;5.240;2023-02-07T08:33:19;103939.00000000001;;;1.46;80.27
50652;BME280;66928;52.086;5.240;2023-02-07T08:34:57;103939.00000000001;;;1.55;80.16
50652;BME280;66928;52.086;5.240;2023-02-07T08:36:34;103943.0;;;1.72;79.59
50652;BME280;66928;52.086;5.240;2023-02-07T08:38:11;103944.0;;;1.64;79.63
50652;BME280;66928;52.086;5.240;2023-02-07T08:41:28;103950.0;;;1.7;79.86
50652;BME280;66928;52.086;5.240;2023-02-07T08:43:11;103950.0;;;1.74;79.99
50652;BME280;66928;52.086;5.240;2023-02-07T08:44:49;103954.0;;;1.85;79.36
50652;BME280;66928;52.086;5.240;2023-02-07T08:46:26;103951.0;;;1.87;79.69
50652;BME280;66928;52.086;5.240;2023-02-07T08:49:41;103954.0;;;1.91;79.42
50652;BME280;66928;52.086;5.240;2023-02-07T08:51:20;103950.0;;;1.89;79.37
50652;BME280;66928;52.086;5.240;2023-02-07T08:52:58;103945.0;;;2.0;79.11
50652;BME280;66928;52.086;5.240;2023-02-07T08:56:11;103947.0;;;2.06;79.11
50652;BME280;66928;52.086;5.240;2023-02-07T08:57:49;103951.0;;;2.07;78.83
50652;BME280;66928;52.086;5.240;2023-02-07T08:59:26;103946.0;;;2.16;78.37
50652;BME280;66928;52.086;5.240;2023-02-07T09:01:03;103949.0;;;2.21;78.37
50652;BME280;66928;52.086;5.240;2023-02-07T09:04:17;103945.0;;;2.19;77.99
50652;BME280;66928;52.086;5.240;2023-02-07T09:05:56;103950.0;;;2.23;77.92
50652;BME280;66928;52.086;5.240;2023-02-07T09:07:34;103956.0;;;2.27;78.03
50652;BME280;66928;52.086;5.240;2023-02-07T09:10:47;103955.0;;;2.34;77.8
50652;BME280;66928;52.086;5.240;2023-02-07T09:12:25;103953.0;;;2.36;77.62
50652;BME280;66928;52.086;5.240;2023-02-07T09:14:02;103951.0;;;2.27;77.86
50652;BME280;66928;52.086;5.240;2023-02-07T09:17:15;103950.0;;;2.35;77.69
50652;BME280;66928;52.086;5.240;2023-02-07T09:18:52;103947.0;;;2.29;77.47
50652;BME280;66928;52.086;5.240;2023-02-07T09:20:30;103948.0;;;2.31;77.66
50652;BME280;66928;52.086;5.240;2023-02-07T09:22:06;103944.0;;;2.29;77.33
50652;BME280;66928;52.086;5.240;2023-02-07T09:25:19;103941.00000000001;;;2.42;76.84
50652;BME280;66928;52.086;5.240;2023-02-07T09:26:57;103942.0;;;2.29;76.78
50652;BME280;66928;52.086;5.240;2023-02-07T09:28:35;103943.0;;;2.5;76.44
50652;BME280;66928;52.086;5.240;2023-02-07T09:31:49;103941.00000000001;;;2.58;76.27
50652;BME280;66928;52.086;5.240;2023-02-07T09:33:28;103942.0;;;2.64;76.11
50652;BME280;66928;52.086;5.240;2023-02-07T09:35:07;103942.0;;;2.61;75.91
50652;BME280;66928;52.086;5.240;2023-02-07T09:36:45;103943.0;;;2.7;75.67
50652;BME280;66928;52.086;5.240;2023-02-07T09:40:00;103944.0;;;2.74;74.92
50652;BME280;66928;52.086;5.240;2023-02-07T09:41:44;103942.0;;;2.77;75.02
50652;BME280;66928;52.086;5.240;2023-02-07T09:43:32;103946.0;;;2.87;75.02
50652;BME280;66928;52.086;5.240;2023-02-07T09:45:17;103942.0;;;2.86;74.47
50652;BME280;66928;52.086;5.240;2023-02-07T09:48:44;103945.0;;;2.82;74.28
50652;BME280;66928;52.086;5.240;2023-02-07T09:50:26;103944.0;;;2.88;74.34
50652;BME280;66928;52.086;5.240;2023-02-07T09:52:11;103947.0;;;2.96;74.03
50652;BME280;66928;52.086;5.240;2023-02-07T09:53:53;103943.0;;;2.98;74.11
50652;BME280;66928;52.086;5.240;2023-02-07T09:55:39;103946.0;;;3.02;73.91
50652;BME280;66928;52.086;5.240;2023-02-07T09:59:18;103944.0;;;3.08;74.05
50652;BME280;66928;52.086;5.240;2023-02-07T10:01:02;103946.0;;;3.0;73.8
50652;BME280;66928;52.086;5.240;2023-02-07T10:02:43;103942.0;;;3.02;73.83
50652;BME280;66928;52.086;5.240;2023-02-07T10:04:28;103943.0;;;3.2;73.52
50652;BME280;66928;52.086;5.240;2023-02-07T10:06:13;103942.0;;;3.08;73.66
50652;BME280;66928;52.086;5.240;2023-02-07T10:09:38;103945.0;;;3.09;73.58
50652;BME280;66928;52.086;5.240;2023-02-07T10:11:20;103950.0;;;3.07;73.67
50652;BME280;66928;52.086;5.240;2023-02-07T10:13:20;103953.0;;;3.16;73.67
50652;BME280;66928;52.086;5.240;2023-02-07T10:15:41;103956.0;;;3.25;73.36
50652;BME280;66928;52.086;5.240;2023-02-07T10:17:41;103963.00000000001;;;3.26;73.48
50652;BME280;66928;52.086;5.240;2023-02-07T10:19:42;103967.0;;;3.24;73.67
50652;BME280;66928;52.086;5.240;2023-02-07T10:21:31;103965.00000000001;;;3.37;73.47
50652;BME280;66928;52.086;5.240;2023-02-07T10:23:28;103969.0;;;3.44;73.05
50652;BME280;66928;52.086;5.240;2023-02-07T10:25:21;103972.0;;;3.31;73.22
50652;BME280;66928;52.086;5.240;2023-02-07T10:27:08;103976.0;;;3.47;72.48
50652;BME280;66928;52.086;5.240;2023-02-07T10:31:11;103972.0;;;3.56;71.75
50652;BME280;66928;52.086;5.240;2023-02-07T10:34:30;103974.0;;;3.46;71.08
50652;BME280;66928;52.086;5.240;2023-02-07T10:36:13;103969.0;;;3.56;71.02
50652;BME280;66928;52.086;5.240;2023-02-07T10:37:53;103974.0;;;3.55;71.08
50652;BME280;66928;52.086;5.240;2023-02-07T10:39:38;103970.0;;;3.47;71.36
50652;BME280;66928;52.086;5.240;2023-02-07T10:43:10;103970.0;;;3.54;70.95
50652;BME280;66928;52.086;5.240;2023-02-07T10:44:50;103965.00000000001;;;3.65;70.28
50652;BME280;66928;52.086;5.240;2023-02-07T10:46:29;103974.0;;;3.56;70.64
50652;BME280;66928;52.086;5.240;2023-02-07T10:48:10;103970.0;;;3.48;71.19
50652;BME280;66928;52.086;5.240;2023-02-07T10:54:15;103959.99999999999;;;3.57;70.8
50652;BME280;66928;52.086;5.240;2023-02-07T10:57:16;103965.00000000001;;;3.52;70.97
50652;BME280;66928;52.086;5.240;2023-02-07T11:00:21;103961.99999999999;;;3.74;69.58
50652;BME280;66928;52.086;5.240;2023-02-07T11:03:18;103968.0;;;3.81;68.55
50652;BME280;66928;52.086;5.240;2023-02-07T11:06:14;103964.00000000001;;;3.95;67.75
50652;BME280;66928;52.086;5.240;2023-02-07T11:09:20;103966.00000000001;;;4.03;67.44
50652;BME280;66928;52.086;5.240;2023-02-07T11:12:19;103966.00000000001;;;4.09;67.16
50652;BME280;66928;52.086;5.240;2023-02-07T11:15:18;103959.99999999999;;;3.95;67.42
50652;BME280;66928;52.086;5.240;2023-02-07T11:18:25;103958.0;;;4.16;66.78
50652;BME280;66928;52.086;5.240;2023-02-07T11:21:26;103952.0;;;4.34;65.75
50652;BME280;66928;52.086;5.240;2023-02-07T11:24:24;103947.0;;;4.34;65.66
50652;BME280;66928;52.086;5.240;2023-02-07T11:27:21;103947.0;;;4.24;65.44
50652;BME280;66928;52.086;5.240;2023-02-07T11:33:16;103948.0;;;4.57;64.49
50652;BME280;66928;52.086;5.240;2023-02-07T11:36:20;103947.0;;;4.61;64.25
50652;BME280;66928;52.086;5.240;2023-02-07T11:39:16;103949.0;;;4.71;63.52
50652;BME280;66928;52.086;5.240;2023-02-07T11:42:12;103949.0;;;4.66;62.78
50652;BME280;66928;52.086;5.240;2023-02-07T11:45:12;103947.0;;;4.79;62.71
50652;BME280;66928;52.086;5.240;2023-02-07T11:48:16;103930.0;;;4.86;62.46
50652;BME280;66928;52.086;5.240;2023-02-07T11:50:15;103923.0;;;4.82;62.27
50652;BME280;66928;52.086;5.240;2023-02-07T11:52:06;103922.0;;;4.99;61.79
50652;BME280;66928;52.086;5.240;2023-02-07T11:53:46;103925.0;;;4.97;62.07
50652;BME280;66928;52.086;5.240;2023-02-07T11:55:30;103921.0;;;5.03;61.46
50652;BME280;66928;52.086;5.240;2023-02-07T11:57:13;103922.0;;;4.95;61.65
50652;BME280;66928;52.086;5.240;2023-02-07T11:58:53;103917.0;;;5.13;61.2
50652;BME280;66928;52.086;5.240;2023-02-07T12:02:16;103914.00000000001;;;5.08;60.74
50652;BME280;66928;52.086;5.240;2023-02-07T12:04:01;103909.99999999999;;;5.18;60.7
50652;BME280;66928;52.086;5.240;2023-02-07T12:05:48;103908.0;;;5.2;60.89
50652;BME280;66928;52.086;5.240;2023-02-07T12:07:34;103914.00000000001;;;5.3;60.5
50652;BME280;66928;52.086;5.240;2023-02-07T12:11:12;103911.99999999999;;;5.16;60.86
50652;BME280;66928;52.086;5.240;2023-02-07T12:12:57;103909.99999999999;;;5.18;60.66
50652;BME280;66928;52.086;5.240;2023-02-07T12:14:40;103905.0;;;5.22;60.61
50652;BME280;66928;52.086;5.240;2023-02-07T12:16:23;103906.0;;;5.21;61.05
50652;BME280;66928;52.086;5.240;2023-02-07T12:18:05;103900.0;;;5.31;60.79
50652;BME280;66928;52.086;5.240;2023-02-07T12:21:33;103901.0;;;5.41;60.34
50652;BME280;66928;52.086;5.240;2023-02-07T12:23:19;103900.0;;;5.4;59.88
50652;BME280;66928;52.086;5.240;2023-02-07T12:25:04;103903.0;;;5.47;60.01
50652;BME280;66928;52.086;5.240;2023-02-07T12:26:49;103899.0;;;5.48;59.87
50652;BME280;66928;52.086;5.240;2023-02-07T12:28:33;103901.0;;;5.43;60.11
50652;BME280;66928;52.086;5.240;2023-02-07T12:32:01;103900.0;;;5.35;60.05
50652;BME280;66928;52.086;5.240;2023-02-07T12:33:44;103899.0;;;5.5;59.29
50652;BME280;66928;52.086;5.240;2023-02-07T12:35:27;103902.0;;;5.4;58.99
50652;BME280;66928;52.086;5.240;2023-02-07T12:37:14;103904.0;;;5.19;59.34
50652;BME280;66928;52.086;5.240;2023-02-07T12:38:57;103903.0;;;5.39;59.22
50652;BME280;66928;52.086;5.240;2023-02-07T12:42:30;103911.99999999999;;;5.34;59.04
50652;BME280;66928;52.086;5.240;2023-02-07T12:44:23;103908.0;;;5.37;58.98
50652;BME280;66928;52.086;5.240;2023-02-07T12:48:00;103913.00000000001;;;5.67;58.47
50652;BME280;66928;52.086;5.240;2023-02-07T12:49:56;103905.0;;;5.71;58.23
50652;BME280;66928;52.086;5.240;2023-02-07T12:51:48;103904.0;;;5.68;58.34
50652;BME280;66928;52.086;5.240;2023-02-07T12:53:37;103908.0;;;5.7;58.02
50652;BME280;66928;52.086;5.240;2023-02-07T12:57:18;103909.99999999999;;;5.71;57.65
50652;BME280;66928;52.086;5.240;2023-02-07T12:59:09;103907.0;;;5.75;56.94
50652;BME280;66928;52.086;5.240;2023-02-07T13:00:56;103906.0;;;5.73;56.79
50652;BME280;66928;52.086;5.240;2023-02-07T13:02:49;103902.0;;;5.88;56.21
50652;BME280;66928;52.086;5.240;2023-02-07T13:04:50;103897.0;;;5.99;55.83
50652;BME280;66928;52.086;5.240;2023-02-07T13:06:50;103893.0;;;5.86;55.7
50652;BME280;66928;52.086;5.240;2023-02-07T13:08:42;103886.99999999999;;;5.78;56.28
50652;BME280;66928;52.086;5.240;2023-02-07T13:10:27;103883.99999999999;;;5.92;56.04
50652;BME280;66928;52.086;5.240;2023-02-07T13:12:14;103883.0;;;5.99;56.05
50652;BME280;66928;52.086;5.240;2023-02-07T13:15:49;103882.0;;;6.06;55.4
50652;BME280;66928;52.086;5.240;2023-02-07T13:17:39;103879.0;;;6.0;55.1
50652;BME280;66928;52.086;5.240;2023-02-07T13:19:25;103877.0;;;5.93;55.49
50652;BME280;66928;52.086;5.240;2023-02-07T13:21:12;103876.0;;;5.95;55.26
50652;BME280;66928;52.086;5.240;2023-02-07T13:22:55;103873.0;;;6.18;54.34
50652;BME280;66928;52.086;5.240;2023-02-07T13:26:16;103870.0;;;6.15;54.76
50652;BME280;66928;52.086;5.240;2023-02-07T13:27:55;103873.0;;;6.05;54.62
50652;BME280;66928;52.086;5.240;2023-02-07T13:29:35;103873.0;;;5.84;54.49
50652;BME280;66928;52.086;5.240;2023-02-07T13:31:15;103872.0;;;5.77;54.01
50652;BME280;66928;52.086;5.240;2023-02-07T13:34:41;103869.0;;;6.19;53.07
50652;BME280;66928;52.086;5.240;2023-02-07T13:36:29;103865.00000000001;;;6.1;52.89
50652;BME280;66928;52.086;5.240;2023-02-07T13:38:21;103863.00000000001;;;6.24;54.26
50652;BME280;66928;52.086;5.240;2023-02-07T13:40:23;103867.0;;;6.2;53.1
50652;BME280;66928;52.086;5.240;2023-02-07T13:42:13;103871.0;;;6.43;52.06
50652;BME280;66928;52.086;5.240;2023-02-07T13:43:58;103872.0;;;6.22;52.17
50652;BME280;66928;52.086;5.240;2023-02-07T13:45:44;103865.00000000001;;;6.59;51.45
50652;BME280;66928;52.086;5.240;2023-02-07T13:49:22;103858.99999999999;;;6.55;50.86
50652;BME280;66928;52.086;5.240;2023-02-07T13:51:12;103856.0;;;6.33;50.48
50652;BME280;66928;52.086;5.240;2023-02-07T13:53:02;103858.0;;;6.3;51.44
50652;BME280;66928;52.086;5.240;2023-02-07T13:54:52;103855.0;;;6.58;52.55
50652;BME280;66928;52.086;5.240;2023-02-07T14:00:08;103856.0;;;6.75;51.83
50652;BME280;66928;52.086;5.240;2023-02-07T14:01:58;103861.99999999999;;;6.75;51.31
50652;BME280;66928;52.086;5.240;2023-02-07T14:03:35;103859.99999999999;;;6.68;50.7
50652;BME280;66928;52.086;5.240;2023-02-07T14:05:19;103861.99999999999;;;6.46;50.85
50652;BME280;66928;52.086;5.240;2023-02-07T14:07:01;103863.00000000001;;;6.81;49.89
50652;BME280;66928;52.086;5.240;2023-02-07T14:08:39;103858.99999999999;;;6.9;50.57
50652;BME280;66928;52.086;5.240;2023-02-07T14:12:32;103861.99999999999;;;6.94;50.92
50652;BME280;66928;52.086;5.240;2023-02-07T14:14:14;103863.00000000001;;;6.92;50.02
50652;BME280;66928;52.086;5.240;2023-02-07T14:15:58;103864.00000000001;;;6.98;49.71
50652;BME280;66928;52.086;5.240;2023-02-07T14:18:37;103858.99999999999;;;7.08;49.56
50652;BME280;66928;52.086;5.240;2023-02-07T14:20:49;103861.99999999999;;;6.92;49.81
50652;BME280;66928;52.086;5.240;2023-02-07T14:23:02;103864.00000000001;;;6.88;49.48
50652;BME280;66928;52.086;5.240;2023-02-07T14:25:15;103858.99999999999;;;6.68;49.78
50652;BME280;66928;52.086;5.240;2023-02-07T14:26:58;103863.00000000001;;;6.84;49.31
50652;BME280;66928;52.086;5.240;2023-02-07T14:28:40;103856.0;;;7.05;49.13
50652;BME280;66928;52.086;5.240;2023-02-07T14:30:19;103853.0;;;7.05;48.86
50652;BME280;66928;52.086;5.240;2023-02-07T14:31:58;103854.0;;;7.1;49.59
50652;BME280;66928;52.086;5.240;2023-02-07T14:35:34;103851.0;;;7.09;50.6
50652;BME280;66928;52.086;5.240;2023-02-07T14:37:19;103851.0;;;7.08;50.77
50652;BME280;66928;52.086;5.240;2023-02-07T14:39:02;103854.0;;;7.2;50.82
50652;BME280;66928;52.086;5.240;2023-02-07T14:40:51;103856.0;;;7.22;50.98
50652;BME280;66928;52.086;5.240;2023-02-07T14:42:29;103852.0;;;7.18;50.61
50652;BME280;66928;52.086;5.240;2023-02-07T14:46:03;103848.0;;;7.23;50.85
50652;BME280;66928;52.086;5.240;2023-02-07T14:47:41;103850.0;;;7.19;50.41
50652;BME280;66928;52.086;5.240;2023-02-07T14:49:29;103846.0;;;7.32;50.94
50652;BME280;66928;52.086;5.240;2023-02-07T14:51:11;103844.0;;;7.33;49.87
50652;BME280;66928;52.086;5.240;2023-02-07T14:52:50;103842.0;;;7.36;49.54
50652;BME280;66928;52.086;5.240;2023-02-07T14:56:24;103839.00000000001;;;7.27;49.98
50652;BME280;66928;52.086;5.240;2023-02-07T14:58:05;103839.00000000001;;;7.33;50.21
50652;BME280;66928;52.086;5.240;2023-02-07T14:59:54;103838.00000000001;;;7.33;50.75
50652;BME280;66928;52.086;5.240;2023-02-07T15:01:37;103838.00000000001;;;7.41;50.54
50652;BME280;66928;52.086;5.240;2023-02-07T15:03:15;103836.99999999999;;;7.42;50.09
50652;BME280;66928;52.086;5.240;2023-02-07T15:06:36;103838.00000000001;;;7.16;50.29
50652;BME280;66928;52.086;5.240;2023-02-07T15:08:17;103843.0;;;7.19;50.1
50652;BME280;66928;52.086;5.240;2023-02-07T15:09:54;103842.0;;;7.18;50.21
50652;BME280;66928;52.086;5.240;2023-02-07T15:11:31;103842.0;;;7.21;50.34
50652;BME280;66928;52.086;5.240;2023-02-07T15:14:56;103840.00000000001;;;7.26;50.22
50652;BME280;66928;52.086;5.240;2023-02-07T15:16:34;103842.0;;;7.28;50.75
50652;BME280;66928;52.086;5.240;2023-02-07T15:18:12;103842.0;;;7.25;50.96
50652;BME280;66928;52.086;5.240;2023-02-07T15:19:52;103841.00000000001;;;7.33;50.51
50652;BME280;66928;52.086;5.240;2023-02-07T15:23:12;103834.99999999999;;;7.25;50.72
50652;BME280;66928;52.086;5.240;2023-02-07T15:24:50;103839.00000000001;;;6.97;51.63
50652;BME280;66928;52.086;5.240;2023-02-07T15:26:31;103836.99999999999;;;7.2;51.17
50652;BME280;66928;52.086;5.240;2023-02-07T15:28:17;103833.99999999999;;;7.02;51.27
50652;BME280;66928;52.086;5.240;2023-02-07T15:31:37;103833.99999999999;;;7.2;51.48
50652;BME280;66928;52.086;5.240;2023-02-07T15:33:15;103836.99999999999;;;7.21;51.68
50652;BME280;66928;52.086;5.240;2023-02-07T15:34:55;103833.0;;;7.26;51.38
50652;BME280;66928;52.086;5.240;2023-02-07T15:36:34;103841.00000000001;;;7.14;51.21
50652;BME280;66928;52.086;5.240;2023-02-07T15:39:53;103840.00000000001;;;7.13;51.03
50652;BME280;66928;52.086;5.240;2023-02-07T15:41:32;103836.99999999999;;;7.2;50.99
50652;BME280;66928;52.086;5.240;2023-02-07T15:43:22;103838.00000000001;;;7.19;50.66
50652;BME280;66928;52.086;5.240;2023-02-07T15:44:59;103840.00000000001;;;7.22;51.07
50652;BME280;66928;52.086;5.240;2023-02-07T15:48:21;103841.00000000001;;;7.11;50.66
50652;BME280;66928;52.086;5.240;2023-02-07T15:49:58;103841.00000000001;;;7.15;50.45
50652;BME280;66928;52.086;5.240;2023-02-07T15:51:38;103839.00000000001;;;7.25;50.77
50652;BME280;66928;52.086;5.240;2023-02-07T15:53:19;103843.0;;;7.21;50.94
50652;BME280;66928;52.086;5.240;2023-02-07T15:56:43;103843.0;;;7.07;50.87
50652;BME280;66928;52.086;5.240;2023-02-07T15:58:23;103843.0;;;6.82;52.15
50652;BME280;66928;52.086;5.240;2023-02-07T16:00:04;103845.0;;;6.6;53.33
50652;BME280;66928;52.086;5.240;2023-02-07T16:01:41;103846.0;;;6.64;53.78
50652;BME280;66928;52.086;5.240;2023-02-07T16:04:57;103847.0;;;6.68;54.0
50652;BME280;66928;52.086;5.240;2023-02-07T16:06:34;103843.0;;;6.56;54.37
50652;BME280;66928;52.086;5.240;2023-02-07T16:08:28;103842.0;;;6.4;55.06
50652;BME280;66928;52.086;5.240;2023-02-07T16:10:15;103840.00000000001;;;6.36;55.62
50652;BME280;66928;52.086;5.240;2023-02-07T16:13:32;103839.00000000001;;;6.29;56.13
50652;BME280;66928;52.086;5.240;2023-02-07T16:15:26;103842.0;;;6.23;56.71
50652;BME280;66928;52.086;5.240;2023-02-07T16:17:04;103843.0;;;6.22;56.84
50652;BME280;66928;52.086;5.240;2023-02-07T16:18:42;103841.00000000001;;;6.07;57.18
50652;BME280;66928;52.086;5.240;2023-02-07T16:22:01;103840.00000000001;;;5.97;57.37
50652;BME280;66928;52.086;5.240;2023-02-07T16:23:38;103844.0;;;6.24;56.99
50652;BME280;66928;52.086;5.240;2023-02-07T16:25:18;103850.0;;;6.09;57.16
50652;BME280;66928;52.086;5.240;2023-02-07T16:26:55;103853.0;;;5.87;57.7
50652;BME280;66928;52.086;5.240;2023-02-07T16:30:13;103851.0;;;5.77;57.94
50652;BME280;66928;52.086;5.240;2023-02-07T16:31:51;103848.0;;;5.77;58.28
50652;BME280;66928;52.086;5.240;2023-02-07T16:33:28;103847.0;;;5.66;57.93
50652;BME280;66928;52.086;5.240;2023-02-07T16:35:14;103848.0;;;5.73;57.73
50652;BME280;66928;52.086;5.240;2023-02-07T16:38:31;103850.0;;;5.71;57.9
50652;BME280;66928;52.086;5.240;2023-02-07T16:40:10;103855.0;;;5.84;57.79
50652;BME280;66928;52.086;5.240;2023-02-07T16:41:48;103854.0;;;5.91;57.48
50652;BME280;66928;52.086;5.240;2023-02-07T16:43:34;103863.00000000001;;;5.91;57.52
50652;BME280;66928;52.086;5.240;2023-02-07T16:47:01;103864.00000000001;;;5.63;58.22
50652;BME280;66928;52.086;5.240;2023-02-07T16:48:38;103864.00000000001;;;5.73;58.39
50652;BME280;66928;52.086;5.240;2023-02-07T16:50:17;103863.00000000001;;;5.75;58.29
50652;BME280;66928;52.086;5.240;2023-02-07T16:51:55;103864.00000000001;;;5.55;58.76
50652;BME280;66928;52.086;5.240;2023-02-07T16:55:09;103867.0;;;5.62;58.56
50652;BME280;66928;52.086;5.240;2023-02-07T16:56:48;103870.0;;;5.62;58.72
50652;BME280;66928;52.086;5.240;2023-02-07T16:58:28;103872.0;;;5.46;59.1
50652;BME280;66928;52.086;5.240;2023-02-07T17:00:08;103866.00000000001;;;5.62;58.79
50652;BME280;66928;52.086;5.240;2023-02-07T17:03:27;103866.00000000001;;;5.69;58.46
50652;BME280;66928;52.086;5.240;2023-02-07T17:05:04;103867.0;;;5.56;58.73
50652;BME280;66928;52.086;5.240;2023-02-07T17:06:42;103867.0;;;5.57;58.45
50652;BME280;66928;52.086;5.240;2023-02-07T17:09:59;103870.0;;;5.46;58.97
50652;BME280;66928;52.086;5.240;2023-02-07T17:11:35;103869.0;;;5.28;59.69
50652;BME280;66928;52.086;5.240;2023-02-07T17:13:11;103868.0;;;5.17;59.76
50652;BME280;66928;52.086;5.240;2023-02-07T17:14:48;103870.0;;;5.52;58.91
50652;BME280;66928;52.086;5.240;2023-02-07T17:18:02;103869.0;;;5.48;59.06
50652;BME280;66928;52.086;5.240;2023-02-07T17:19:39;103869.0;;;5.49;58.92
50652;BME280;66928;52.086;5.240;2023-02-07T17:21:15;103869.0;;;5.33;59.34
50652;BME280;66928;52.086;5.240;2023-02-07T17:24:30;103867.0;;;5.16;60.18
50652;BME280;66928;52.086;5.240;2023-02-07T17:26:20;103867.0;;;5.19;60.21
50652;BME280;66928;52.086;5.240;2023-02-07T17:27:58;103867.0;;;5.12;60.64
50652;BME280;66928;52.086;5.240;2023-02-07T17:29:36;103870.0;;;4.91;61.14
50652;BME280;66928;52.086;5.240;2023-02-07T17:32:49;103869.0;;;5.0;61.49
50652;BME280;66928;52.086;5.240;2023-02-07T17:34:26;103867.0;;;5.04;61.39
50652;BME280;66928;52.086;5.240;2023-02-07T17:36:03;103872.0;;;5.0;61.36
50652;BME280;66928;52.086;5.240;2023-02-07T17:39:18;103866.00000000001;;;4.72;62.71
50652;BME280;66928;52.086;5.240;2023-02-07T17:40:54;103867.0;;;4.91;62.27
50652;BME280;66928;52.086;5.240;2023-02-07T17:42:31;103867.0;;;4.61;63.22
50652;BME280;66928;52.086;5.240;2023-02-07T17:44:07;103865.00000000001;;;4.72;62.85